createdAt,value
2018-12-15T00:00:28.282Z,2.10
2018-12-15T00:03:05.752Z,2.10
2018-12-15T00:05:43.342Z,2.00
2018-12-15T00:08:18.759Z,2.00
2018-12-15T00:10:54.273Z,2.00
2018-12-15T00:13:29.873Z,2.00
2018-12-15T00:16:05.303Z,2.10
2018-12-15T00:18:40.682Z,2.00
2018-12-15T00:21:15.917Z,2.00
2018-12-15T00:23:51.281Z,2.00
2018-12-15T00:26:26.687Z,2.00
2018-12-15T00:29:02.106Z,2.00
2018-12-15T00:31:37.338Z,2.00
2018-12-15T00:34:12.698Z,2.00
2018-12-15T00:36:48.262Z,2.00
2018-12-15T00:39:23.566Z,2.00
2018-12-15T00:41:58.803Z,2.00
2018-12-15T00:44:34.226Z,2.00
2018-12-15T00:47:13.832Z,2.00
2018-12-15T00:49:46.930Z,2.00
2018-12-15T00:52:22.466Z,1.90
2018-12-15T00:54:57.746Z,1.90
2018-12-15T00:57:33.250Z,1.90
2018-12-15T01:00:08.811Z,1.90
2018-12-15T01:02:45.986Z,1.90
2018-12-15T01:05:21.659Z,1.90
2018-12-15T01:07:56.987Z,1.90
2018-12-15T01:10:32.465Z,1.90
2018-12-15T01:13:07.919Z,1.90
2018-12-15T01:15:45.140Z,1.90
2018-12-15T01:18:20.555Z,1.90
2018-12-15T01:20:56.058Z,1.90
2018-12-15T01:23:31.458Z,1.90
2018-12-15T01:26:07.034Z,1.90
2018-12-15T01:28:42.445Z,1.90
2018-12-15T01:31:17.920Z,1.80
2018-12-15T01:33:53.238Z,1.80
2018-12-15T01:36:28.683Z,1.80
2018-12-15T01:39:06.883Z,1.80
2018-12-15T01:41:44.501Z,1.80
2018-12-15T01:44:19.794Z,1.80
2018-12-15T01:46:55.308Z,1.80
2018-12-15T01:49:30.704Z,1.80
2018-12-15T01:52:06.133Z,1.80
2018-12-15T01:54:41.419Z,1.80
2018-12-15T01:57:16.833Z,1.80
2018-12-15T01:59:52.291Z,1.80
2018-12-15T02:02:27.818Z,1.80
2018-12-15T02:05:03.177Z,1.80
2018-12-15T02:07:38.710Z,1.80
2018-12-15T02:10:14.325Z,1.80
2018-12-15T02:12:49.661Z,1.80
2018-12-15T02:15:25.050Z,1.80
2018-12-15T02:18:00.499Z,1.70
2018-12-15T02:20:35.905Z,1.80
2018-12-15T02:23:11.329Z,1.80
2018-12-15T02:25:46.632Z,1.80
2018-12-15T02:28:21.970Z,1.80
2018-12-15T02:30:57.526Z,1.70
2018-12-15T02:33:32.985Z,1.70
2018-12-15T02:36:08.486Z,1.70
2018-12-15T02:38:43.760Z,1.80
2018-12-15T02:41:19.159Z,1.70
2018-12-15T02:43:55.370Z,1.70
2018-12-15T02:46:30.595Z,1.80
2018-12-15T02:49:06.168Z,1.70
2018-12-15T02:51:41.748Z,1.70
2018-12-15T02:54:17.117Z,1.70
2018-12-15T02:56:52.438Z,1.70
2018-12-15T02:59:27.697Z,1.70
2018-12-15T03:02:03.423Z,1.70
2018-12-15T03:04:38.905Z,1.70
2018-12-15T03:07:14.191Z,1.70
2018-12-15T03:09:49.603Z,1.70
2018-12-15T03:12:25.120Z,1.70
2018-12-15T03:15:00.524Z,1.80
2018-12-15T03:17:36.024Z,1.70
2018-12-15T03:20:11.307Z,1.70
2018-12-15T03:22:46.662Z,1.80
2018-12-15T03:25:22.010Z,1.70
2018-12-15T03:27:57.379Z,1.70
2018-12-15T03:30:32.772Z,1.70
2018-12-15T03:33:08.218Z,1.70
2018-12-15T03:35:43.660Z,1.70
2018-12-15T03:38:19.060Z,1.70
2018-12-15T03:40:54.526Z,1.70
2018-12-15T03:43:29.809Z,1.70
2018-12-15T03:46:05.210Z,1.70
2018-12-15T03:48:40.522Z,1.70
2018-12-15T03:51:15.894Z,1.70
2018-12-15T03:53:51.182Z,1.80
2018-12-15T03:56:26.651Z,1.70
2018-12-15T03:59:02.015Z,1.70
2018-12-15T04:01:37.478Z,1.60
2018-12-15T04:04:12.931Z,1.70
2018-12-15T04:06:48.346Z,1.70
2018-12-15T04:09:23.820Z,1.70
2018-12-15T04:11:59.232Z,1.70
2018-12-15T04:14:34.599Z,1.70
2018-12-15T04:17:09.975Z,1.70
2018-12-15T04:19:45.473Z,1.70
2018-12-15T04:22:21.579Z,1.70
2018-12-15T04:24:57.218Z,1.70
2018-12-15T04:27:32.526Z,1.70
2018-12-15T04:30:10.410Z,1.70
2018-12-15T04:32:45.664Z,1.70
2018-12-15T04:35:21.063Z,1.60
2018-12-15T04:37:56.489Z,1.70
2018-12-15T04:40:32.252Z,1.70
2018-12-15T04:43:07.702Z,1.70
2018-12-15T04:45:43.018Z,1.70
2018-12-15T04:48:18.423Z,1.70
2018-12-15T04:50:53.679Z,1.70
2018-12-15T04:53:29.075Z,1.70
2018-12-15T04:56:04.390Z,1.70
2018-12-15T04:58:39.705Z,1.70
2018-12-15T05:01:15.084Z,1.60
2018-12-15T05:03:50.482Z,1.60
2018-12-15T05:06:25.948Z,1.70
2018-12-15T05:09:01.357Z,1.70
2018-12-15T05:11:38.725Z,1.70
2018-12-15T05:14:14.115Z,1.80
2018-12-15T05:16:49.302Z,1.70
2018-12-15T05:19:24.677Z,1.70
2018-12-15T05:21:59.986Z,1.70
2018-12-15T05:24:35.483Z,1.70
2018-12-15T05:27:11.494Z,1.70
2018-12-15T05:29:46.885Z,1.80
2018-12-15T05:32:22.151Z,1.80
2018-12-15T05:34:57.594Z,1.80
2018-12-15T05:37:32.933Z,1.70
2018-12-15T05:40:08.493Z,1.70
2018-12-15T05:42:44.174Z,1.70
2018-12-15T05:45:19.541Z,1.70
2018-12-15T05:47:54.833Z,1.70
2018-12-15T05:50:30.163Z,1.70
2018-12-15T05:53:05.563Z,1.70
2018-12-15T05:55:41.159Z,1.70
2018-12-15T05:58:16.511Z,1.70
2018-12-15T06:00:51.815Z,1.70
2018-12-15T06:03:27.134Z,1.70
2018-12-15T06:06:02.477Z,1.70
2018-12-15T06:08:37.747Z,1.70
2018-12-15T06:11:13.114Z,1.60
2018-12-15T06:13:48.516Z,1.70
2018-12-15T06:16:23.778Z,1.70
2018-12-15T06:18:59.256Z,1.70
2018-12-15T06:21:34.570Z,1.60
2018-12-15T06:24:09.896Z,1.60
2018-12-15T06:26:45.275Z,1.70
2018-12-15T06:29:20.715Z,1.60
2018-12-15T06:31:56.062Z,1.60
2018-12-15T06:34:31.484Z,1.60
2018-12-15T06:37:06.812Z,1.60
2018-12-15T06:39:42.247Z,1.60
2018-12-15T06:42:17.694Z,1.60
2018-12-15T06:44:52.949Z,1.60
2018-12-15T06:47:28.202Z,1.60
2018-12-15T06:50:04.343Z,1.60
2018-12-15T06:52:39.594Z,1.60
2018-12-15T06:55:14.914Z,1.60
2018-12-15T06:57:50.142Z,1.60
2018-12-15T07:00:26.330Z,1.60
2018-12-15T07:03:01.797Z,1.60
2018-12-15T07:05:37.271Z,1.50
2018-12-15T07:08:12.621Z,1.50
2018-12-15T07:10:48.038Z,1.50
2018-12-15T07:13:23.439Z,1.50
2018-12-15T07:15:58.898Z,1.50
2018-12-15T07:18:34.110Z,1.50
2018-12-15T07:21:09.489Z,1.40
2018-12-15T07:23:44.770Z,1.50
2018-12-15T07:26:20.174Z,1.40
2018-12-15T07:28:55.373Z,1.30
2018-12-15T07:31:30.919Z,1.20
2018-12-15T07:34:06.139Z,1.10
2018-12-15T07:36:41.496Z,1.00
2018-12-15T07:39:16.924Z,1.00
2018-12-15T07:41:52.152Z,0.90
2018-12-15T07:44:27.662Z,0.80
2018-12-15T07:47:02.969Z,0.80
2018-12-15T07:49:38.314Z,0.90
2018-12-15T07:52:13.555Z,0.90
2018-12-15T07:54:48.915Z,0.90
2018-12-15T07:57:24.261Z,0.80
2018-12-15T07:59:59.611Z,0.80
2018-12-15T08:02:35.015Z,0.80
2018-12-15T08:05:10.378Z,0.70
2018-12-15T08:07:45.786Z,0.60
2018-12-15T08:10:24.405Z,0.70
2018-12-15T08:13:03.292Z,0.70
2018-12-15T08:15:38.771Z,0.80
2018-12-15T08:18:13.999Z,0.80
2018-12-15T08:20:49.457Z,0.90
2018-12-15T08:23:24.974Z,1.00
2018-12-15T08:26:04.344Z,1.10
2018-12-15T08:28:39.794Z,1.10
2018-12-15T08:31:15.171Z,1.20
2018-12-15T08:33:50.665Z,1.30
2018-12-15T08:36:26.413Z,1.30
2018-12-15T08:39:01.631Z,1.30
2018-12-15T08:41:39.018Z,1.30
2018-12-15T08:44:14.560Z,1.40
2018-12-15T08:46:49.950Z,1.40
2018-12-15T08:49:25.456Z,1.50
2018-12-15T08:52:00.823Z,1.50
2018-12-15T08:54:36.187Z,1.60
2018-12-15T08:57:15.797Z,1.60
2018-12-15T08:59:51.071Z,1.70
2018-12-15T09:02:26.613Z,1.70
2018-12-15T09:05:02.027Z,1.80
2018-12-15T09:07:37.686Z,1.80
2018-12-15T09:10:13.152Z,1.80
2018-12-15T09:12:48.580Z,1.90
2018-12-15T09:15:23.969Z,1.90
2018-12-15T09:17:59.511Z,1.90
2018-12-15T09:20:35.161Z,1.90
2018-12-15T09:23:10.707Z,2.00
2018-12-15T09:25:46.094Z,2.00
2018-12-15T09:28:21.876Z,2.10
2018-12-15T09:30:57.304Z,2.10
2018-12-15T09:33:32.901Z,2.20
2018-12-15T09:36:08.428Z,2.20
2018-12-15T09:38:43.833Z,2.20
2018-12-15T09:41:19.188Z,2.20
2018-12-15T09:43:56.660Z,2.20
2018-12-15T09:46:32.231Z,2.30
2018-12-15T09:49:08.796Z,2.30
2018-12-15T09:51:44.402Z,2.30
2018-12-15T09:54:19.780Z,2.30
2018-12-15T09:56:55.122Z,2.30
2018-12-15T09:59:30.631Z,2.30
2018-12-15T10:02:06.490Z,2.40
2018-12-15T10:04:42.872Z,2.40
2018-12-15T10:07:18.544Z,2.40
2018-12-15T10:09:54.145Z,2.50
2018-12-15T10:12:29.647Z,2.60
2018-12-15T10:15:05.821Z,2.50
2018-12-15T10:17:41.634Z,2.60
2018-12-15T10:20:16.928Z,2.60
2018-12-15T10:22:52.395Z,2.60
2018-12-15T10:25:27.879Z,2.60
2018-12-15T10:28:03.542Z,2.60
2018-12-15T10:30:44.143Z,2.70
2018-12-15T10:33:20.721Z,2.60
2018-12-15T10:35:56.194Z,2.60
2018-12-15T10:38:33.161Z,2.70
2018-12-15T10:41:08.751Z,2.80
2018-12-15T10:43:44.308Z,2.90
2018-12-15T10:46:19.815Z,2.90
2018-12-15T10:48:57.190Z,2.80
2018-12-15T10:51:32.663Z,2.90
2018-12-15T10:54:08.116Z,3.00
2018-12-15T10:56:43.427Z,3.00
2018-12-15T10:59:18.993Z,2.90
2018-12-15T11:01:56.212Z,2.90
2018-12-15T11:04:31.548Z,2.80
2018-12-15T11:07:08.720Z,2.80
2018-12-15T11:09:44.517Z,2.80
2018-12-15T11:12:20.022Z,2.80
2018-12-15T11:14:55.642Z,2.80
2018-12-15T11:17:32.003Z,2.80
2018-12-15T11:20:08.463Z,2.80
2018-12-15T11:22:43.910Z,2.80
2018-12-15T11:25:19.179Z,2.90
2018-12-15T11:27:54.685Z,3.00
2018-12-15T11:30:30.298Z,3.10
2018-12-15T11:33:05.850Z,3.10
2018-12-15T11:35:41.278Z,3.30
2018-12-15T11:38:16.746Z,3.50
2018-12-15T11:40:52.370Z,3.50
2018-12-15T11:43:27.888Z,3.40
2018-12-15T11:46:03.211Z,3.40
2018-12-15T11:48:38.833Z,3.30
2018-12-15T11:51:14.229Z,3.50
2018-12-15T11:53:49.467Z,3.40
2018-12-15T11:56:25.099Z,3.50
2018-12-15T11:59:00.672Z,3.50
2018-12-15T12:01:36.349Z,3.60
2018-12-15T12:04:11.841Z,3.40
2018-12-15T12:06:47.213Z,3.30
2018-12-15T12:09:22.923Z,3.30
2018-12-15T12:11:58.806Z,3.40
2018-12-15T12:14:34.631Z,3.40
2018-12-15T12:17:10.282Z,3.40
2018-12-15T12:19:50.155Z,3.20
2018-12-15T12:22:24.126Z,3.10
2018-12-15T12:24:59.817Z,3.20
2018-12-15T12:27:37.188Z,3.00
2018-12-15T12:30:13.399Z,3.00
2018-12-15T12:32:49.587Z,3.00
2018-12-15T12:35:25.018Z,2.90
2018-12-15T12:38:01.246Z,2.90
2018-12-15T12:40:37.393Z,3.00
2018-12-15T12:43:13.149Z,3.10
2018-12-15T12:45:48.781Z,3.10
2018-12-15T12:48:25.127Z,3.10
2018-12-15T12:51:00.778Z,3.30
2018-12-15T12:53:36.213Z,3.40
2018-12-15T12:56:11.515Z,3.40
2018-12-15T12:58:47.188Z,3.30
2018-12-15T13:01:22.896Z,3.20
2018-12-15T13:03:58.358Z,3.10
2018-12-15T13:06:33.709Z,2.90
2018-12-15T13:09:09.379Z,2.70
2018-12-15T13:11:44.747Z,2.70
2018-12-15T13:14:20.098Z,2.50
2018-12-15T13:16:55.565Z,2.40
2018-12-15T13:19:30.958Z,2.30
2018-12-15T13:22:06.447Z,2.10
2018-12-15T13:24:41.989Z,2.00
2018-12-15T13:27:17.427Z,1.90
2018-12-15T13:29:52.763Z,1.80
2018-12-15T13:32:28.226Z,1.80
2018-12-15T13:35:03.866Z,1.80
2018-12-15T13:37:39.193Z,1.90
2018-12-15T13:40:14.627Z,2.00
2018-12-15T13:42:49.922Z,1.90
2018-12-15T13:45:25.244Z,2.00
2018-12-15T13:48:01.983Z,2.00
2018-12-15T13:50:38.176Z,2.00
2018-12-15T13:53:14.814Z,2.00
2018-12-15T13:55:50.265Z,2.00
2018-12-15T13:58:25.566Z,2.00
2018-12-15T14:01:01.130Z,2.10
2018-12-15T14:03:36.838Z,2.10
2018-12-15T14:06:12.139Z,2.00
2018-12-15T14:08:47.790Z,2.00
2018-12-15T14:11:23.146Z,2.00
2018-12-15T14:13:58.479Z,1.90
2018-12-15T14:16:33.817Z,1.80
2018-12-15T14:19:09.123Z,1.80
2018-12-15T14:21:44.558Z,1.80
2018-12-15T14:24:19.905Z,1.90
2018-12-15T14:26:55.370Z,1.80
2018-12-15T14:29:30.734Z,1.80
2018-12-15T14:32:06.255Z,1.70
2018-12-15T14:34:41.609Z,1.70
2018-12-15T14:37:16.864Z,1.60
2018-12-15T14:39:52.221Z,1.50
2018-12-15T14:42:27.511Z,1.30
2018-12-15T14:45:02.839Z,1.30
2018-12-15T14:47:38.501Z,1.20
2018-12-15T14:50:13.737Z,1.10
2018-12-15T14:52:49.162Z,1.00
2018-12-15T14:55:25.555Z,1.00
2018-12-15T14:58:01.034Z,1.00
2018-12-15T15:00:36.318Z,1.10
2018-12-15T15:03:11.658Z,1.10
2018-12-15T15:05:47.010Z,1.10
2018-12-15T15:08:22.378Z,1.20
2018-12-15T15:10:57.798Z,1.20
2018-12-15T15:13:34.674Z,1.20
2018-12-15T15:16:10.239Z,1.20
2018-12-15T15:18:45.718Z,1.10
2018-12-15T15:21:21.392Z,1.00
2018-12-15T15:23:56.797Z,0.90
2018-12-15T15:26:32.549Z,0.90
2018-12-15T15:29:07.856Z,0.80
2018-12-15T15:31:43.337Z,0.80
2018-12-15T15:34:18.822Z,0.60
2018-12-15T15:36:54.266Z,0.60
2018-12-15T15:39:29.703Z,0.60
2018-12-15T15:42:05.032Z,0.50
2018-12-15T15:44:40.446Z,0.40
2018-12-15T15:47:16.007Z,0.30
2018-12-15T15:49:51.390Z,0.30
2018-12-15T15:52:26.889Z,0.20
2018-12-15T15:55:02.384Z,0.20
2018-12-15T15:57:38.045Z,0.20
2018-12-15T16:00:13.591Z,0.10
2018-12-15T16:02:50.510Z,0.00
2018-12-15T16:05:26.721Z,0.00
2018-12-15T16:08:02.718Z,0.00
2018-12-15T16:10:40.367Z,-0.10
2018-12-15T16:13:16.772Z,-0.10
2018-12-15T16:15:52.301Z,-0.20
2018-12-15T16:18:27.901Z,-0.30
2018-12-15T16:21:03.302Z,-0.30
2018-12-15T16:23:38.938Z,-0.40
2018-12-15T16:26:14.542Z,-0.40
2018-12-15T16:28:50.087Z,-0.40
2018-12-15T16:31:25.419Z,-0.40
2018-12-15T16:34:01.078Z,-0.50
2018-12-15T16:36:36.546Z,-0.40
2018-12-15T16:39:12.035Z,-0.40
2018-12-15T16:41:47.605Z,-0.30
2018-12-15T16:44:23.251Z,-0.30
2018-12-15T16:46:58.763Z,-0.10
2018-12-15T16:49:34.586Z,-0.20
2018-12-15T16:52:10.112Z,-0.20
2018-12-15T16:54:46.299Z,-0.20
2018-12-15T16:57:21.554Z,-0.30
2018-12-15T16:59:56.910Z,-0.20
2018-12-15T17:02:32.222Z,-0.10
2018-12-15T17:05:08.966Z,-0.10
2018-12-15T17:07:44.795Z,-0.10
2018-12-15T17:10:20.467Z,-0.20
2018-12-15T17:12:55.830Z,-0.10
2018-12-15T17:15:31.290Z,-0.10
2018-12-15T17:18:06.815Z,-0.20
2018-12-15T17:20:42.682Z,-0.10
2018-12-15T17:23:18.244Z,-0.10
2018-12-15T17:25:53.878Z,-0.20
2018-12-15T17:28:29.582Z,-0.20
2018-12-15T17:31:06.997Z,-0.20
2018-12-15T17:33:42.598Z,-0.30
2018-12-15T17:36:17.974Z,-0.30
2018-12-15T17:38:53.648Z,-0.30
2018-12-15T17:41:29.186Z,-0.50
2018-12-15T17:44:04.897Z,-0.50
2018-12-15T17:46:40.567Z,-0.50
2018-12-15T17:49:16.184Z,-0.60
2018-12-15T17:51:51.677Z,-0.60
2018-12-15T17:54:27.370Z,-0.50
2018-12-15T17:57:03.089Z,-0.60
2018-12-15T17:59:38.991Z,-0.60
2018-12-15T18:02:14.364Z,-0.50
2018-12-15T18:04:49.777Z,-0.50
2018-12-15T18:07:25.066Z,-0.50
2018-12-15T18:10:00.714Z,-0.50
2018-12-15T18:12:36.269Z,-0.50
2018-12-15T18:15:11.718Z,-0.50
2018-12-15T18:17:47.195Z,-0.50
2018-12-15T18:20:22.533Z,-0.40
2018-12-15T18:22:58.179Z,-0.40
2018-12-15T18:25:33.734Z,-0.40
2018-12-15T18:28:09.226Z,-0.40
2018-12-15T18:30:44.765Z,-0.40
2018-12-15T18:33:20.171Z,-0.30
2018-12-15T18:35:55.439Z,-0.40
2018-12-15T18:38:30.855Z,-0.30
2018-12-15T18:41:06.146Z,-0.20
2018-12-15T18:43:41.495Z,-0.20
2018-12-15T18:46:16.920Z,-0.10
2018-12-15T18:48:55.033Z,-0.10
2018-12-15T18:51:30.786Z,-0.10
2018-12-15T18:54:06.207Z,-0.10
2018-12-15T18:56:42.790Z,-0.20
2018-12-15T18:59:18.613Z,-0.20
2018-12-15T19:01:53.893Z,-0.30
2018-12-15T19:04:30.569Z,-0.30
2018-12-15T19:07:06.098Z,-0.20
2018-12-15T19:09:41.716Z,-0.30
2018-12-15T19:12:17.393Z,-0.30
2018-12-15T19:14:52.849Z,-0.30
2018-12-15T19:17:28.571Z,-0.50
2018-12-15T19:20:04.105Z,-0.50
2018-12-15T19:22:40.006Z,-0.50
2018-12-15T19:25:15.547Z,-0.40
2018-12-15T19:27:51.030Z,-0.50
2018-12-15T19:30:26.532Z,-0.40
2018-12-15T19:33:01.978Z,-0.40
2018-12-15T19:35:38.975Z,-0.40
2018-12-15T19:38:14.394Z,-0.40
2018-12-15T19:40:50.027Z,-0.40
2018-12-15T19:43:25.964Z,-0.40
2018-12-15T19:46:01.423Z,-0.30
2018-12-15T19:48:37.015Z,-0.30
2018-12-15T19:51:12.410Z,-0.20
2018-12-15T19:53:47.779Z,-0.30
2018-12-15T19:56:24.390Z,-0.40
2018-12-15T19:58:59.698Z,-0.40
2018-12-15T20:01:35.202Z,-0.40
2018-12-15T20:04:10.508Z,-0.40
2018-12-15T20:06:46.092Z,-0.50
2018-12-15T20:09:21.631Z,-0.50
2018-12-15T20:11:56.949Z,-0.50
2018-12-15T20:14:32.376Z,-0.50
2018-12-15T20:17:07.977Z,-0.40
2018-12-15T20:19:43.637Z,-0.50
2018-12-15T20:22:19.078Z,-0.40
2018-12-15T20:24:54.538Z,-0.40
2018-12-15T20:27:30.472Z,-0.40
2018-12-15T20:30:07.114Z,-0.30
2018-12-15T20:32:42.652Z,-0.50
2018-12-15T20:35:18.010Z,-0.40
2018-12-15T20:37:53.343Z,-0.50
2018-12-15T20:40:28.857Z,-0.60
2018-12-15T20:43:05.370Z,-0.70
2018-12-15T20:45:40.664Z,-0.60
2018-12-15T20:48:16.067Z,-0.50
2018-12-15T20:50:51.390Z,-0.50
2018-12-15T20:53:26.847Z,-0.40
2018-12-15T20:56:02.239Z,-0.50
2018-12-15T20:58:37.787Z,-0.40
2018-12-15T21:01:13.269Z,-0.40
2018-12-15T21:03:48.594Z,-0.40
2018-12-15T21:06:23.965Z,-0.50
2018-12-15T21:08:59.637Z,-0.40
2018-12-15T21:11:35.042Z,-0.40
2018-12-15T21:14:10.449Z,-0.40
2018-12-15T21:16:45.925Z,-0.30
2018-12-15T21:19:21.338Z,-0.20
2018-12-15T21:21:56.715Z,-0.20
2018-12-15T21:24:32.034Z,-0.40
2018-12-15T21:27:07.440Z,-0.30
2018-12-15T21:29:42.947Z,-0.20
2018-12-15T21:32:18.419Z,-0.20
2018-12-15T21:34:54.142Z,-0.20
2018-12-15T21:37:29.599Z,-0.20
2018-12-15T21:40:07.113Z,-0.20
2018-12-15T21:42:42.663Z,-0.10
2018-12-15T21:45:18.027Z,-0.10
2018-12-15T21:47:57.646Z,0.00
2018-12-15T21:50:31.747Z,-0.10
2018-12-15T21:53:07.195Z,-0.10
2018-12-15T21:55:42.516Z,-0.10
2018-12-15T21:58:18.026Z,0.00
2018-12-15T22:00:53.525Z,-0.20
2018-12-15T22:03:28.934Z,-0.20
2018-12-15T22:06:04.265Z,-0.20
2018-12-15T22:08:39.622Z,-0.20
2018-12-15T22:11:15.151Z,-0.20
2018-12-15T22:13:50.587Z,-0.10
2018-12-15T22:16:25.895Z,-0.20
2018-12-15T22:19:02.293Z,-0.10
2018-12-15T22:21:37.942Z,-0.20
2018-12-15T22:24:13.303Z,-0.30
2018-12-15T22:26:48.670Z,-0.30
2018-12-15T22:29:24.118Z,-0.20
2018-12-15T22:31:59.784Z,-0.20
2018-12-15T22:34:35.245Z,-0.20
2018-12-15T22:37:11.563Z,-0.30
2018-12-15T22:39:47.174Z,-0.30
2018-12-15T22:42:23.121Z,-0.30
2018-12-15T22:44:58.537Z,-0.40
2018-12-15T22:47:34.050Z,-0.40
2018-12-15T22:50:09.452Z,-0.40
2018-12-15T22:52:45.020Z,-0.40
2018-12-15T22:55:20.517Z,-0.40
2018-12-15T22:57:56.249Z,-0.30
2018-12-15T23:00:36.069Z,-0.40
2018-12-15T23:03:13.599Z,-0.40
2018-12-15T23:05:48.971Z,-0.40
2018-12-15T23:08:24.434Z,-0.40
2018-12-15T23:10:59.915Z,-0.50
2018-12-15T23:13:35.451Z,-0.50
2018-12-15T23:16:10.867Z,-0.50
2018-12-15T23:18:46.274Z,-0.50
2018-12-15T23:21:21.610Z,-0.50
2018-12-15T23:23:57.109Z,-0.50
2018-12-15T23:26:32.719Z,-0.60
2018-12-15T23:29:08.153Z,-0.60
2018-12-15T23:31:43.497Z,-0.50
2018-12-15T23:34:18.921Z,-0.60
2018-12-15T23:36:54.329Z,-0.60
2018-12-15T23:39:29.776Z,-0.60
2018-12-15T23:42:05.150Z,-0.70
2018-12-15T23:44:40.481Z,-0.70
2018-12-15T23:47:15.901Z,-0.70
2018-12-15T23:49:51.256Z,-0.80
2018-12-15T23:52:26.642Z,-0.80
2018-12-15T23:55:01.929Z,-0.80
2018-12-15T23:57:37.838Z,-0.80
